Time;durP1;ratioP1;P1;durP2;ratioP2;P2;SDS_P1;SDS_P2;PMS_P1;PMS_P2;Temp;Humidity;BMP_temperature;BMP_pressure;BME280_temperature;BME280_humidity;BME280_pressure;Samples;Min_cycle;Max_cycle;Signal;HPM_P1;HPM_P2
2022/05/22 00:01:26;;;;;;;14.23;6.78;;;;;;;;;;4969547;28;20101;-80
2022/05/22 00:03:52;;;;;;;16.50;7.40;;;;;;;;;;4985775;28;20511;-80
2022/05/22 00:06:18;;;;;;;21.13;7.25;;;;;;;;;;4985793;28;20090;-80
2022/05/22 00:08:44;;;;;;;12.35;6.55;;;;;;;;;;4970459;28;20039;-80
2022/05/22 00:11:11;;;;;;;15.45;6.45;;;;;;;;;;4986114;28;20402;-80
2022/05/22 00:13:37;;;;;;;14.77;6.78;;;;;;;;;;4985458;28;20057;-79
2022/05/22 00:18:48;;;;;;;14.05;6.20;;;;;;;;;;4969875;28;20145;-80
2022/05/22 00:21:14;;;;;;;10.82;6.70;;;;;;;;;;4985869;28;20122;-80
2022/05/22 00:23:40;;;;;;;15.40;6.72;;;;;;;;;;4985242;28;20047;-79
2022/05/22 00:26:06;;;;;;;12.25;6.25;;;;;;;;;;4970739;28;20078;-80
2022/05/22 00:28:32;;;;;;;10.25;5.78;;;;;;;;;;4985004;28;20045;-79
2022/05/22 00:30:58;;;;;;;13.13;6.38;;;;;;;;;;4985400;28;20126;-80
2022/05/22 00:33:26;;;;;;;12.15;6.57;;;;;;;;;;4953271;28;20043;-80
2022/05/22 00:35:52;;;;;;;11.27;6.82;;;;;;;;;;4985991;28;20039;-79
2022/05/22 00:38:18;;;;;;;11.95;6.25;;;;;;;;;;4937315;28;20098;-79
2022/05/22 00:40:44;;;;;;;12.63;6.40;;;;;;;;;;4969664;28;20447;-79
2022/05/22 00:43:24;;;;;;;15.07;6.47;;;;;;;;;;4957479;28;20072;-75
2022/05/22 00:45:50;;;;;;;16.30;6.85;;;;;;;;;;4975222;28;20047;-75
2022/05/22 00:48:16;;;;;;;13.77;6.13;;;;;;;;;;4957530;28;20039;-75
2022/05/22 00:50:43;;;;;;;11.38;5.35;;;;;;;;;;4973864;28;20042;-75
2022/05/22 00:53:09;;;;;;;12.57;6.20;;;;;;;;;;4989993;28;20038;-75
2022/05/22 00:55:35;;;;;;;12.05;5.72;;;;;;;;;;4973147;28;20043;-75
2022/05/22 00:58:03;;;;;;;12.82;5.95;;;;;;;;;;4989662;28;20049;-75
2022/05/22 01:00:31;;;;;;;13.38;6.25;;;;;;;;;;4989185;28;20046;-75
2022/05/22 01:05:44;;;;;;;11.52;5.90;;;;;;;;;;4973231;28;20051;-76
2022/05/22 01:08:11;;;;;;;14.40;6.30;;;;;;;;;;4972744;28;20049;-76
2022/05/22 01:10:45;;;;;;;13.85;6.57;;;;;;;;;;4973119;28;20122;-75
2022/05/22 01:13:16;;;;;;;15.57;6.85;;;;;;;;;;4974289;28;20101;-75
2022/05/22 01:15:43;;;;;;;17.33;6.45;;;;;;;;;;4972926;28;20474;-75
2022/05/22 01:18:10;;;;;;;16.38;6.82;;;;;;;;;;4989277;28;20054;-76
2022/05/22 01:20:37;;;;;;;15.10;6.22;;;;;;;;;;4972820;28;20046;-76
2022/05/22 01:23:03;;;;;;;11.30;6.13;;;;;;;;;;4973132;28;20047;-77
2022/05/22 01:25:29;;;;;;;14.30;6.55;;;;;;;;;;4972738;28;20042;-76
2022/05/22 01:27:55;;;;;;;11.00;5.60;;;;;;;;;;4973328;28;20557;-76
2022/05/22 01:30:24;;;;;;;14.60;6.60;;;;;;;;;;4973332;28;20390;-76
2022/05/22 01:32:50;;;;;;;15.63;7.70;;;;;;;;;;4989185;28;20039;-76
2022/05/22 01:35:18;;;;;;;11.45;5.97;;;;;;;;;;4973215;28;20376;-76
2022/05/22 01:37:45;;;;;;;11.70;6.15;;;;;;;;;;4972764;28;20046;-76
2022/05/22 01:40:12;;;;;;;10.88;6.60;;;;;;;;;;4972892;28;20039;-76
2022/05/22 01:42:38;;;;;;;13.68;6.43;;;;;;;;;;4972804;28;20522;-76
2022/05/22 01:45:05;;;;;;;11.30;6.32;;;;;;;;;;4973132;28;20050;-77
2022/05/22 01:47:35;;;;;;;15.20;7.07;;;;;;;;;;4972595;28;20042;-77
2022/05/22 01:50:02;;;;;;;12.48;6.78;;;;;;;;;;4973097;28;20105;-77
2022/05/22 01:52:28;;;;;;;16.08;7.07;;;;;;;;;;4972461;28;20062;-76
2022/05/22 01:54:54;;;;;;;13.88;6.90;;;;;;;;;;4972685;28;20141;-76
2022/05/22 01:57:21;;;;;;;13.35;6.57;;;;;;;;;;4956483;28;20043;-76
2022/05/22 01:59:47;;;;;;;13.07;6.13;;;;;;;;;;4972691;28;20552;-76
2022/05/22 02:02:13;;;;;;;11.40;6.03;;;;;;;;;;4971343;28;20066;-77
2022/05/22 02:04:39;;;;;;;14.60;6.85;;;;;;;;;;4984465;28;20060;-78
2022/05/22 02:09:50;;;;;;;15.93;6.35;;;;;;;;;;4988487;28;20039;-77
2022/05/22 02:12:16;;;;;;;10.13;6.03;;;;;;;;;;4972046;28;20043;-76
2022/05/22 02:14:42;;;;;;;11.55;5.68;;;;;;;;;;4987754;28;20038;-76
2022/05/22 02:17:08;;;;;;;13.00;6.80;;;;;;;;;;4988392;28;20051;-76
2022/05/22 02:19:34;;;;;;;11.80;6.30;;;;;;;;;;4987756;28;20146;-76
2022/05/22 02:22:00;;;;;;;14.85;6.38;;;;;;;;;;5005020;28;20051;-77
2022/05/22 02:24:26;;;;;;;13.50;5.63;;;;;;;;;;4987948;28;20054;-77
2022/05/22 02:26:52;;;;;;;10.65;5.43;;;;;;;;;;4988478;28;20058;-77
2022/05/22 02:29:19;;;;;;;8.93;5.10;;;;;;;;;;4972763;28;20063;-80
2022/05/22 02:31:45;;;;;;;11.52;5.97;;;;;;;;;;5003881;28;20054;-80
2022/05/22 02:34:11;;;;;;;11.13;5.32;;;;;;;;;;4971887;28;20130;-77
2022/05/22 02:36:37;;;;;;;9.23;4.60;;;;;;;;;;5003871;28;20089;-77
2022/05/22 02:39:03;;;;;;;8.45;4.05;;;;;;;;;;4986756;28;20058;-77
2022/05/22 02:41:29;;;;;;;8.95;4.13;;;;;;;;;;4987561;28;20050;-77
2022/05/22 02:43:55;;;;;;;7.55;4.20;;;;;;;;;;4987845;28;20111;-76
2022/05/22 02:46:22;;;;;;;8.52;5.15;;;;;;;;;;4987777;28;20058;-76
2022/05/22 02:48:48;;;;;;;8.40;4.43;;;;;;;;;;4987782;28;20479;-76
2022/05/22 02:51:16;;;;;;;10.95;5.03;;;;;;;;;;5004197;28;20441;-76
2022/05/22 02:53:42;;;;;;;12.80;4.85;;;;;;;;;;4987249;28;20050;-76
2022/05/22 02:56:13;;;;;;;11.32;4.97;;;;;;;;;;4987979;28;20459;-77
2022/05/22 02:58:39;;;;;;;7.47;4.43;;;;;;;;;;5002866;28;20049;-80
2022/05/22 03:01:06;;;;;;;6.25;4.00;;;;;;;;;;5003284;28;20043;-80
2022/05/22 03:03:32;;;;;;;5.63;3.70;;;;;;;;;;4986126;28;20055;-80
2022/05/22 03:08:44;;;;;;;5.65;3.78;;;;;;;;;;4970280;28;20051;-77
2022/05/22 03:11:11;;;;;;;4.68;3.60;;;;;;;;;;4987474;28;20458;-77
2022/05/22 03:13:37;;;;;;;5.68;3.58;;;;;;;;;;4986889;28;20050;-77
2022/05/22 03:16:03;;;;;;;5.07;3.58;;;;;;;;;;4954881;28;20080;-77
2022/05/22 03:18:30;;;;;;;6.72;4.25;;;;;;;;;;4986626;28;20050;-76
2022/05/22 03:20:56;;;;;;;7.13;4.28;;;;;;;;;;4986956;28;20057;-77
2022/05/22 03:23:22;;;;;;;5.97;4.22;;;;;;;;;;4986702;28;20086;-77
2022/05/22 03:25:48;;;;;;;5.55;4.22;;;;;;;;;;4971567;28;20082;-77
2022/05/22 03:28:15;;;;;;;6.43;4.68;;;;;;;;;;4954524;28;20098;-77
2022/05/22 03:30:41;;;;;;;5.97;3.47;;;;;;;;;;4986425;28;20038;-77
2022/05/22 03:33:07;;;;;;;6.60;3.80;;;;;;;;;;4954662;28;20056;-77
2022/05/22 03:35:33;;;;;;;8.10;3.58;;;;;;;;;;4970181;28;20051;-76
2022/05/22 03:37:59;;;;;;;9.93;4.43;;;;;;;;;;4954592;28;20062;-76
2022/05/22 03:40:25;;;;;;;6.32;4.30;;;;;;;;;;4971941;28;20509;-77
2022/05/22 03:42:51;;;;;;;8.82;4.30;;;;;;;;;;4986518;28;20414;-78
2022/05/22 03:45:18;;;;;;;8.63;4.30;;;;;;;;;;4986622;28;20051;-77
2022/05/22 03:47:44;;;;;;;6.28;3.58;;;;;;;;;;4986088;28;20177;-81
2022/05/22 03:50:11;;;;;;;6.68;4.00;;;;;;;;;;4970263;28;20402;-81
2022/05/22 03:52:39;;;;;;;9.75;4.80;;;;;;;;;;4953497;28;20047;-81
2022/05/22 03:55:07;;;;;;;8.10;4.53;;;;;;;;;;4986606;28;20459;-81
2022/05/22 03:57:34;;;;;;;6.55;3.80;;;;;;;;;;4953707;28;20454;-81
2022/05/22 04:00:01;;;;;;;6.35;3.83;;;;;;;;;;4986112;28;20050;-81
2022/05/22 04:02:28;;;;;;;6.95;3.47;;;;;;;;;;4983395;28;20506;-81
2022/05/22 04:04:54;;;;;;;6.07;3.88;;;;;;;;;;4953100;28;20047;-81
2022/05/22 04:07:20;;;;;;;8.65;4.95;;;;;;;;;;4981551;28;20114;-81
2022/05/22 04:09:51;;;;;;;9.00;5.13;;;;;;;;;;4982478;28;20047;-81
2022/05/22 04:12:17;;;;;;;8.00;4.70;;;;;;;;;;4982456;28;20035;-81
2022/05/22 04:14:43;;;;;;;6.85;4.63;;;;;;;;;;4982321;28;20051;-81
2022/05/22 04:17:09;;;;;;;8.90;4.63;;;;;;;;;;4981680;28;20043;-81
2022/05/22 04:19:37;;;;;;;7.72;4.75;;;;;;;;;;4982390;28;20411;-81
2022/05/22 04:22:04;;;;;;;8.43;4.25;;;;;;;;;;4983008;28;20054;-76
2022/05/22 04:27:15;;;;;;;8.75;4.78;;;;;;;;;;4966508;28;20047;-81
2022/05/22 04:29:41;;;;;;;8.05;4.47;;;;;;;;;;4966047;28;20050;-81
2022/05/22 04:32:07;;;;;;;7.95;5.18;;;;;;;;;;4950098;29;20047;-81
2022/05/22 04:34:33;;;;;;;10.73;5.70;;;;;;;;;;4981935;28;20043;-81
2022/05/22 04:36:59;;;;;;;10.18;5.53;;;;;;;;;;4982372;28;20207;-81
2022/05/22 04:39:25;;;;;;;11.98;5.88;;;;;;;;;;4982362;28;20043;-81
2022/05/22 04:41:52;;;;;;;10.82;5.57;;;;;;;;;;4982266;28;20050;-82
2022/05/22 04:44:18;;;;;;;9.85;5.60;;;;;;;;;;4982289;28;20085;-82
2022/05/22 04:46:47;;;;;;;7.93;5.18;;;;;;;;;;4981585;28;20043;-82
2022/05/22 04:49:13;;;;;;;8.93;5.13;;;;;;;;;;4966067;28;20511;-82
2022/05/22 04:51:39;;;;;;;9.32;5.03;;;;;;;;;;4981680;28;20050;-81
2022/05/22 04:54:05;;;;;;;9.75;5.50;;;;;;;;;;4982402;28;20046;-81
2022/05/22 04:56:31;;;;;;;9.15;5.65;;;;;;;;;;4981831;28;20046;-81
2022/05/22 04:58:58;;;;;;;8.50;4.95;;;;;;;;;;4982080;28;20055;-81
2022/05/22 05:01:24;;;;;;;8.15;5.38;;;;;;;;;;4982061;28;20047;-81
2022/05/22 05:03:50;;;;;;;9.43;5.60;;;;;;;;;;4981603;28;20082;-78
2022/05/22 05:06:16;;;;;;;8.07;5.10;;;;;;;;;;4982414;28;20050;-76
2022/05/22 05:08:42;;;;;;;7.82;4.93;;;;;;;;;;4981982;28;20042;-77
2022/05/22 05:11:10;;;;;;;7.93;5.05;;;;;;;;;;4983039;28;20688;-77
2022/05/22 05:13:37;;;;;;;7.55;5.07;;;;;;;;;;4951245;29;20039;-77
2022/05/22 05:16:03;;;;;;;8.15;4.82;;;;;;;;;;4982473;28;20058;-77
2022/05/22 05:18:29;;;;;;;9.40;5.63;;;;;;;;;;4982343;28;20051;-77
2022/05/22 05:20:58;;;;;;;8.95;5.40;;;;;;;;;;4982260;28;20054;-77
2022/05/22 05:23:24;;;;;;;10.70;5.15;;;;;;;;;;4982771;28;20046;-77
2022/05/22 05:25:50;;;;;;;7.70;4.68;;;;;;;;;;4982187;28;20042;-77
2022/05/22 05:28:16;;;;;;;10.75;5.20;;;;;;;;;;4985051;28;20082;-77
2022/05/22 05:30:43;;;;;;;10.32;5.07;;;;;;;;;;4984990;28;20036;-77
2022/05/22 05:33:09;;;;;;;10.27;5.07;;;;;;;;;;4986039;28;20106;-77
2022/05/22 05:35:35;;;;;;;8.82;4.65;;;;;;;;;;4985585;28;20055;-77
2022/05/22 05:38:02;;;;;;;9.88;4.60;;;;;;;;;;4985908;28;20130;-77
2022/05/22 05:40:28;;;;;;;9.13;4.90;;;;;;;;;;4985954;28;20446;-77
2022/05/22 05:42:54;;;;;;;8.13;5.20;;;;;;;;;;4985069;28;20054;-77
2022/05/22 05:45:20;;;;;;;11.00;5.20;;;;;;;;;;4954208;29;20406;-77
2022/05/22 05:47:47;;;;;;;8.00;4.45;;;;;;;;;;4985047;28;20491;-77
2022/05/22 05:50:23;;;;;;;9.60;4.65;;;;;;;;;;4954727;29;20399;-77
2022/05/22 05:52:56;;;;;;;7.80;4.70;;;;;;;;;;4984791;28;20043;-77
2022/05/22 05:55:22;;;;;;;9.60;4.63;;;;;;;;;;4985279;28;20047;-77
2022/05/22 05:57:48;;;;;;;8.20;4.60;;;;;;;;;;4984570;28;20122;-77
2022/05/22 06:00:16;;;;;;;10.63;4.43;;;;;;;;;;4985291;28;20069;-77
2022/05/22 06:02:43;;;;;;;9.75;4.25;;;;;;;;;;4984419;28;20443;-77
2022/05/22 06:05:09;;;;;;;8.15;4.00;;;;;;;;;;4984481;28;20052;-77
2022/05/22 06:07:35;;;;;;;12.38;4.60;;;;;;;;;;4984181;28;20047;-77
2022/05/22 06:10:02;;;;;;;7.90;4.10;;;;;;;;;;4984715;28;20066;-76
2022/05/22 06:12:28;;;;;;;9.27;4.10;;;;;;;;;;4953777;29;20043;-77
2022/05/22 06:14:54;;;;;;;8.32;3.78;;;;;;;;;;4984336;28;20074;-76
2022/05/22 06:17:28;;;;;;;6.85;3.67;;;;;;;;;;4984656;28;20042;-77
2022/05/22 06:19:54;;;;;;;8.15;3.67;;;;;;;;;;4984550;28;20094;-77
2022/05/22 06:22:21;;;;;;;5.97;3.58;;;;;;;;;;4984879;28;20047;-77
2022/05/22 06:24:47;;;;;;;7.78;3.95;;;;;;;;;;4984068;28;20206;-77
2022/05/22 06:27:13;;;;;;;7.93;3.53;;;;;;;;;;4984327;28;20126;-77
2022/05/22 06:29:40;;;;;;;7.90;3.53;;;;;;;;;;4984249;28;20051;-76
2022/05/22 06:32:07;;;;;;;7.03;3.70;;;;;;;;;;4984214;28;20051;-78
2022/05/22 06:34:40;;;;;;;8.02;3.30;;;;;;;;;;4984184;28;20043;-77
2022/05/22 06:37:08;;;;;;;8.40;2.75;;;;;;;;;;4984706;28;20062;-77
2022/05/22 06:39:54;;;;;;;6.07;2.78;;;;;;;;;;4966930;28;20055;-76
2022/05/22 06:42:22;;;;;;;7.72;3.15;;;;;;;;;;4984196;28;20125;-76
2022/05/22 06:44:52;;;;;;;7.22;3.13;;;;;;;;;;4983563;28;20043;-76
2022/05/22 06:47:19;;;;;;;7.28;2.80;;;;;;;;;;4983801;28;20406;-76
2022/05/22 06:49:45;;;;;;;5.97;2.90;;;;;;;;;;4983728;28;20166;-76
2022/05/22 06:52:11;;;;;;;7.18;2.78;;;;;;;;;;4952814;29;20488;-76
2022/05/22 06:54:37;;;;;;;6.88;2.60;;;;;;;;;;4983757;28;20051;-76
2022/05/22 06:57:03;;;;;;;6.57;2.53;;;;;;;;;;4983618;28;20074;-77
2022/05/22 06:59:29;;;;;;;7.47;2.90;;;;;;;;;;4984270;28;20150;-76
2022/05/22 07:01:57;;;;;;;7.93;2.72;;;;;;;;;;4983215;28;20051;-76
2022/05/22 07:04:23;;;;;;;7.28;2.85;;;;;;;;;;4996279;28;20050;-76
2022/05/22 07:06:49;;;;;;;5.93;2.63;;;;;;;;;;4986229;28;20053;-76
2022/05/22 07:09:16;;;;;;;7.70;2.75;;;;;;;;;;4987236;28;20047;-76
2022/05/22 07:11:42;;;;;;;10.48;2.80;;;;;;;;;;4987055;28;20265;-76
2022/05/22 07:14:10;;;;;;;7.38;2.60;;;;;;;;;;4986942;28;20042;-75
2022/05/22 07:16:37;;;;;;;9.02;2.70;;;;;;;;;;4986679;28;20043;-76
2022/05/22 07:19:04;;;;;;;7.72;2.83;;;;;;;;;;4986280;28;20134;-76
2022/05/22 07:21:30;;;;;;;7.63;2.75;;;;;;;;;;4986548;28;20039;-78
2022/05/22 07:23:56;;;;;;;8.05;2.47;;;;;;;;;;4986339;28;20394;-78
2022/05/22 07:26:24;;;;;;;8.63;2.50;;;;;;;;;;4986441;28;20043;-77
2022/05/22 07:28:50;;;;;;;9.23;2.20;;;;;;;;;;4986173;28;20500;-78
2022/05/22 07:31:21;;;;;;;9.63;2.47;;;;;;;;;;4954351;28;20475;-78
2022/05/22 07:33:47;;;;;;;7.07;2.70;;;;;;;;;;4985902;28;20072;-79
2022/05/22 07:36:13;;;;;;;8.60;2.60;;;;;;;;;;4954505;28;20061;-78
2022/05/22 07:38:40;;;;;;;9.77;2.53;;;;;;;;;;4986053;28;20046;-78
2022/05/22 07:41:06;;;;;;;11.40;2.95;;;;;;;;;;4985883;28;20054;-78
2022/05/22 07:43:32;;;;;;;8.70;2.50;;;;;;;;;;4971245;28;20043;-78
2022/05/22 07:45:59;;;;;;;7.85;2.17;;;;;;;;;;4985666;28;20046;-77
2022/05/22 07:48:25;;;;;;;7.70;2.38;;;;;;;;;;4986350;28;20039;-78
2022/05/22 07:50:58;;;;;;;6.72;2.38;;;;;;;;;;4985376;28;20129;-78
2022/05/22 07:53:25;;;;;;;5.90;2.20;;;;;;;;;;4986207;28;20402;-78
2022/05/22 07:55:51;;;;;;;9.13;2.58;;;;;;;;;;4953462;28;20094;-77
2022/05/22 07:58:18;;;;;;;9.38;2.47;;;;;;;;;;4986110;28;20109;-77
2022/05/22 08:00:44;;;;;;;7.32;2.20;;;;;;;;;;4986086;28;20397;-77
2022/05/22 08:03:11;;;;;;;8.35;2.22;;;;;;;;;;4985768;28;20090;-77
2022/05/22 08:05:37;;;;;;;6.43;2.10;;;;;;;;;;4968896;28;20086;-77
2022/05/22 08:08:03;;;;;;;7.20;2.20;;;;;;;;;;4969575;28;20043;-77
2022/05/22 08:10:29;;;;;;;6.97;2.00;;;;;;;;;;4969721;28;20090;-77
2022/05/22 08:12:55;;;;;;;7.68;2.28;;;;;;;;;;4985171;28;20513;-76
2022/05/22 08:15:23;;;;;;;8.70;2.20;;;;;;;;;;4970938;28;20049;-77
2022/05/22 08:17:49;;;;;;;6.57;1.90;;;;;;;;;;4968918;28;20047;-77
2022/05/22 08:20:17;;;;;;;10.15;2.25;;;;;;;;;;4969894;28;20043;-77
2022/05/22 08:22:47;;;;;;;9.38;2.28;;;;;;;;;;4969108;28;20045;-77
2022/05/22 08:25:14;;;;;;;8.20;2.15;;;;;;;;;;4969390;28;20077;-77
2022/05/22 08:27:40;;;;;;;7.35;2.00;;;;;;;;;;4969054;28;20035;-76
2022/05/22 08:30:07;;;;;;;6.55;2.22;;;;;;;;;;4970732;28;20070;-77
2022/05/22 08:32:36;;;;;;;7.38;1.90;;;;;;;;;;4969153;28;20506;-77
2022/05/22 08:35:02;;;;;;;5.70;1.90;;;;;;;;;;4969344;28;20093;-77
2022/05/22 08:37:29;;;;;;;7.45;2.10;;;;;;;;;;4969468;28;20050;-76
2022/05/22 08:39:55;;;;;;;5.38;1.92;;;;;;;;;;4969292;28;20105;-77
2022/05/22 08:42:25;;;;;;;6.10;1.90;;;;;;;;;;4969932;28;20465;-76
2022/05/22 08:44:55;;;;;;;9.27;2.20;;;;;;;;;;4968889;28;20314;-77
2022/05/22 08:47:44;;;;;;;5.47;1.98;;;;;;;;;;4969356;28;20490;-77
2022/05/22 08:50:12;;;;;;;5.35;1.92;;;;;;;;;;4968986;28;20371;-76
2022/05/22 08:52:51;;;;;;;7.82;2.38;;;;;;;;;;4968679;28;20050;-76
2022/05/22 08:55:19;;;;;;;5.72;1.70;;;;;;;;;;4985250;28;20208;-77
2022/05/22 09:00:42;;;;;;;7.80;2.55;;;;;;;;;;4968948;28;20054;-76
2022/05/22 09:03:18;;;;;;;6.95;1.95;;;;;;;;;;4971090;28;20125;-77
2022/05/22 09:05:46;;;;;;;6.97;2.20;;;;;;;;;;4956061;28;20113;-76
2022/05/22 09:08:21;;;;;;;7.25;1.92;;;;;;;;;;4988806;28;20086;-76
2022/05/22 09:10:50;;;;;;;8.07;1.98;;;;;;;;;;4988727;28;20050;-76
2022/05/22 09:13:34;;;;;;;6.68;1.80;;;;;;;;;;4988846;28;20141;-76
2022/05/22 09:16:00;;;;;;;5.15;1.98;;;;;;;;;;4989062;28;20061;-76
2022/05/22 09:18:26;;;;;;;8.57;2.03;;;;;;;;;;4973877;28;20061;-76
2022/05/22 09:20:55;;;;;;;6.45;1.83;;;;;;;;;;4956012;28;20129;-76
2022/05/22 09:23:30;;;;;;;7.13;2.10;;;;;;;;;;4988794;28;20050;-76
2022/05/22 09:26:02;;;;;;;6.53;1.60;;;;;;;;;;4988388;28;20050;-76
2022/05/22 09:28:44;;;;;;;5.63;1.70;;;;;;;;;;4989138;28;20433;-75
2022/05/22 09:31:18;;;;;;;8.45;1.60;;;;;;;;;;4988456;28;20042;-76
2022/05/22 09:34:03;;;;;;;10.13;2.10;;;;;;;;;;4973459;28;20050;-77
2022/05/22 09:36:29;;;;;;;7.32;1.70;;;;;;;;;;4956397;28;20101;-76
2022/05/22 09:39:08;;;;;;;5.80;1.67;;;;;;;;;;4972450;28;20116;-76
2022/05/22 09:41:34;;;;;;;7.15;2.22;;;;;;;;;;4988307;28;20197;-76
2022/05/22 09:44:18;;;;;;;5.85;1.60;;;;;;;;;;4956414;28;20051;-76
2022/05/22 09:47:14;;;;;;;8.50;2.33;;;;;;;;;;4973000;28;20074;-76
2022/05/22 09:49:59;;;;;;;7.90;1.95;;;;;;;;;;4947547;28;20133;-76
2022/05/22 09:52:37;;;;;;;6.60;1.60;;;;;;;;;;4955773;28;20081;-76
2022/05/22 09:55:20;;;;;;;7.20;2.42;;;;;;;;;;4972089;28;20525;-76
2022/05/22 09:58:06;;;;;;;7.40;1.85;;;;;;;;;;4987777;28;20035;-76
2022/05/22 10:00:51;;;;;;;6.07;1.90;;;;;;;;;;4988136;28;20043;-76
2022/05/22 10:03:26;;;;;;;8.25;1.60;;;;;;;;;;4988063;28;20406;-76
2022/05/22 10:05:52;;;;;;;8.25;2.03;;;;;;;;;;4971327;28;21037;-76
2022/05/22 10:08:34;;;;;;;5.63;1.42;;;;;;;;;;4971660;28;20556;-75
2022/05/22 10:11:32;;;;;;;6.55;1.67;;;;;;;;;;4972022;28;20055;-75
2022/05/22 10:14:19;;;;;;;5.88;1.45;;;;;;;;;;4923903;28;20406;-74
2022/05/22 10:16:59;;;;;;;6.20;1.52;;;;;;;;;;4971497;28;20058;-74
2022/05/22 10:19:25;;;;;;;6.05;1.70;;;;;;;;;;4971719;28;20057;-74
2022/05/22 10:22:09;;;;;;;6.07;1.67;;;;;;;;;;4971722;28;20039;-75
2022/05/22 10:25:02;;;;;;;5.22;1.63;;;;;;;;;;4971797;28;20435;-74
2022/05/22 10:27:31;;;;;;;5.38;1.38;;;;;;;;;;4949451;28;20505;-77
2022/05/22 10:30:08;;;;;;;4.53;1.50;;;;;;;;;;4971572;28;20125;-78
2022/05/22 10:32:39;;;;;;;4.85;1.70;;;;;;;;;;4971728;28;20049;-74
2022/05/22 10:35:10;;;;;;;5.60;1.75;;;;;;;;;;4971739;28;20043;-74
2022/05/22 10:37:46;;;;;;;8.48;1.70;;;;;;;;;;4971205;28;20093;-77
2022/05/22 10:40:12;;;;;;;;;;;;;;;;;;4972254;28;20593;-75
2022/05/22 10:42:45;;;;;;;6.38;1.80;;;;;;;;;;4987668;28;19997;-76
2022/05/22 10:45:34;;;;;;;6.10;1.48;;;;;;;;;;4972462;28;20065;-75
2022/05/22 10:48:09;;;;;;;5.18;1.30;;;;;;;;;;4970983;28;20058;-75
2022/05/22 10:50:36;;;;;;;4.20;1.38;;;;;;;;;;4987208;28;20409;-75
2022/05/22 10:53:02;;;;;;;4.60;1.58;;;;;;;;;;4971488;28;20046;-75
2022/05/22 10:55:34;;;;;;;6.03;1.73;;;;;;;;;;4987364;28;20043;-75
2022/05/22 10:58:04;;;;;;;5.53;1.50;;;;;;;;;;4971041;28;20189;-74
2022/05/22 11:00:32;;;;;;;5.75;1.60;;;;;;;;;;4970864;28;20046;-74
2022/05/22 11:03:10;;;;;;;4.10;1.50;;;;;;;;;;4987039;28;20050;-75
2022/05/22 11:05:36;;;;;;;6.90;1.42;;;;;;;;;;4970555;28;20216;-75
2022/05/22 11:08:02;;;;;;;6.75;1.40;;;;;;;;;;4971276;28;20061;-75
2022/05/22 11:10:37;;;;;;;6.85;1.60;;;;;;;;;;4971267;28;20058;-75
2022/05/22 11:13:08;;;;;;;7.15;1.50;;;;;;;;;;4987512;28;20479;-75
2022/05/22 11:15:39;;;;;;;4.05;1.55;;;;;;;;;;4987169;28;20126;-77
2022/05/22 11:18:11;;;;;;;5.57;1.60;;;;;;;;;;4970946;28;20038;-75
2022/05/22 11:20:41;;;;;;;4.82;1.40;;;;;;;;;;4970289;28;20043;-74
2022/05/22 11:23:12;;;;;;;6.75;1.50;;;;;;;;;;4972205;28;20049;-75
2022/05/22 11:25:52;;;;;;;5.68;1.50;;;;;;;;;;4985913;28;20171;-75
2022/05/22 11:28:21;;;;;;;4.60;1.10;;;;;;;;;;4986661;28;20129;-75
2022/05/22 11:30:55;;;;;;;4.13;1.45;;;;;;;;;;4970463;28;20371;-75
2022/05/22 11:33:40;;;;;;;4.72;1.40;;;;;;;;;;4970104;28;20039;-75
2022/05/22 11:36:13;;;;;;;4.93;1.70;;;;;;;;;;4970418;28;20034;-75
2022/05/22 11:38:55;;;;;;;6.15;1.70;;;;;;;;;;4970141;28;20049;-74
2022/05/22 11:41:21;;;;;;;4.10;1.10;;;;;;;;;;4970200;28;20051;-75
2022/05/22 11:44:06;;;;;;;6.93;1.58;;;;;;;;;;4969790;28;20058;-74
2022/05/22 11:46:40;;;;;;;5.97;1.50;;;;;;;;;;4986587;28;20047;-75
2022/05/22 11:49:06;;;;;;;6.65;1.50;;;;;;;;;;4970113;28;20042;-75
2022/05/22 11:51:52;;;;;;;5.68;1.52;;;;;;;;;;4969843;28;20039;-74
2022/05/22 11:54:33;;;;;;;5.28;1.40;;;;;;;;;;4971393;28;20046;-76
2022/05/22 11:57:18;;;;;;;6.25;1.90;;;;;;;;;;4969985;28;20057;-74
2022/05/22 11:59:56;;;;;;;6.38;1.58;;;;;;;;;;4969859;28;20101;-75
2022/05/22 12:02:43;;;;;;;5.95;1.50;;;;;;;;;;4986025;28;20485;-75
2022/05/22 12:05:18;;;;;;;4.80;1.30;;;;;;;;;;4969317;28;20498;-75
2022/05/22 12:07:44;;;;;;;;;;;;;;;;;;4985731;28;20054;-76
2022/05/22 12:10:10;;;;;;;11.82;1.70;;;;;;;;;;4969588;28;20016;-75
2022/05/22 12:12:55;;;;;;;6.30;1.40;;;;;;;;;;4985395;28;20047;-74
2022/05/22 12:15:40;;;;;;;6.60;1.30;;;;;;;;;;4969138;28;20089;-75
2022/05/22 12:18:18;;;;;;;5.72;1.20;;;;;;;;;;4985858;28;20514;-74
2022/05/22 12:20:44;;;;;;;6.25;1.17;;;;;;;;;;4970112;28;20041;-74
2022/05/22 12:23:16;;;;;;;4.18;1.25;;;;;;;;;;4985502;28;20517;-74
2022/05/22 12:25:48;;;;;;;4.82;1.33;;;;;;;;;;4985047;28;20038;-75
2022/05/22 12:28:41;;;;;;;6.28;1.50;;;;;;;;;;4970757;28;20054;-74
2022/05/22 12:31:09;;;;;;;4.00;1.10;;;;;;;;;;4967094;28;20468;-75
2022/05/22 12:33:36;;;;;;;5.18;1.30;;;;;;;;;;4985336;28;20109;-74
2022/05/22 12:36:03;;;;;;;7.38;1.52;;;;;;;;;;4985773;28;20502;-75
2022/05/22 12:38:29;;;;;;;3.53;1.23;;;;;;;;;;4988648;28;20047;-74
2022/05/22 12:41:11;;;;;;;3.70;1.20;;;;;;;;;;4989586;28;20490;-76
2022/05/22 12:43:37;;;;;;;3.95;1.50;;;;;;;;;;4989229;28;20038;-74
2022/05/22 12:46:04;;;;;;;5.53;1.20;;;;;;;;;;4989478;28;20043;-75
2022/05/22 12:48:33;;;;;;;3.10;1.17;;;;;;;;;;4973285;28;20054;-77
2022/05/22 12:51:08;;;;;;;5.13;1.48;;;;;;;;;;4956958;28;20050;-75
2022/05/22 12:53:34;;;;;;;;;;;;;;;;;;4974862;28;20039;-74
2022/05/22 12:56:18;;;;;;;5.97;1.35;;;;;;;;;;5005667;28;19925;-76
2022/05/22 12:58:47;;;;;;;4.32;1.30;;;;;;;;;;4989006;28;20050;-73
2022/05/22 13:01:39;;;;;;;3.60;1.30;;;;;;;;;;4957331;28;20057;-74
2022/05/22 13:04:15;;;;;;;5.43;1.42;;;;;;;;;;4970403;28;20050;-75
2022/05/22 13:06:41;;;;;;;;;;;;;;;;;;4972890;28;20449;-73
2022/05/22 13:09:07;;;;;;;3.97;1.38;;;;;;;;;;4989342;28;19926;-73
2022/05/22 13:12:00;;;;;;;3.90;1.42;;;;;;;;;;4973018;28;20381;-74
2022/05/22 13:14:29;;;;;;;6.28;1.90;;;;;;;;;;4970327;28;20170;-74
2022/05/22 13:16:55;;;;;;;5.88;1.95;;;;;;;;;;4972750;28;20566;-74
2022/05/22 13:19:25;;;;;;;5.05;1.35;;;;;;;;;;4972788;28;20046;-74
2022/05/22 13:21:52;;;;;;;5.05;1.52;;;;;;;;;;4972513;28;20078;-73
2022/05/22 13:24:18;;;;;;;4.78;1.23;;;;;;;;;;4988949;28;20042;-77
2022/05/22 13:27:08;;;;;;;4.45;1.30;;;;;;;;;;4972158;28;20039;-74
2022/05/22 13:29:37;;;;;;;5.65;1.17;;;;;;;;;;4972631;28;20055;-73
2022/05/22 13:32:04;;;;;;;4.18;1.20;;;;;;;;;;4972640;28;20043;-76
2022/05/22 13:34:30;;;;;;;3.47;1.27;;;;;;;;;;4972564;28;20093;-74
2022/05/22 13:37:04;;;;;;;3.40;1.30;;;;;;;;;;4988703;28;20053;-76
2022/05/22 13:39:33;;;;;;;5.78;1.30;;;;;;;;;;4972182;28;20049;-74
2022/05/22 13:42:20;;;;;;;3.72;1.08;;;;;;;;;;4973424;28;20177;-76
2022/05/22 13:44:46;;;;;;;3.72;1.10;;;;;;;;;;4972110;28;20058;-73
2022/05/22 13:47:21;;;;;;;4.60;1.20;;;;;;;;;;4972399;28;20129;-76
2022/05/22 13:52:34;;;;;;;5.00;1.20;;;;;;;;;;4971592;28;20078;-75
2022/05/22 13:53:01;;;;;;;4.68;1.27;;;;;;;;;;4988436;28;20483;-73
2022/05/22 13:55:28;;;;;;;3.75;1.30;;;;;;;;;;4972246;28;20117;-73
2022/05/22 13:57:58;;;;;;;5.43;1.40;;;;;;;;;;4973283;28;20129;-78
2022/05/22 14:00:30;;;;;;;5.97;1.50;;;;;;;;;;4972607;28;20034;-74
2022/05/22 14:03:15;;;;;;;4.43;1.38;;;;;;;;;;4988267;28;20066;-74
2022/05/22 14:05:43;;;;;;;3.35;1.10;;;;;;;;;;4987733;28;20051;-74
2022/05/22 14:08:11;;;;;;;3.85;1.30;;;;;;;;;;4956119;28;20053;-77
2022/05/22 14:10:39;;;;;;;3.13;1.40;;;;;;;;;;4988340;28;20126;-74
2022/05/22 14:13:12;;;;;;;5.97;1.48;;;;;;;;;;4973281;28;20081;-74
2022/05/22 14:15:38;;;;;;;4.72;1.40;;;;;;;;;;4973384;28;20089;-75
2022/05/22 14:18:15;;;;;;;3.63;1.30;;;;;;;;;;4955901;28;20047;-77
2022/05/22 14:20:43;;;;;;;5.30;1.40;;;;;;;;;;4955470;28;20078;-75
2022/05/22 14:23:12;;;;;;;3.83;1.20;;;;;;;;;;4971846;28;20546;-75
2022/05/22 14:25:40;;;;;;;5.53;1.30;;;;;;;;;;4987523;28;20097;-75
2022/05/22 14:28:07;;;;;;;3.70;1.27;;;;;;;;;;4988286;28;20538;-73
2022/05/22 14:30:40;;;;;;;5.30;1.40;;;;;;;;;;4988067;28;20129;-74
2022/05/22 14:33:12;;;;;;;4.53;1.30;;;;;;;;;;4988134;28;20066;-74
2022/05/22 14:35:41;;;;;;;4.82;1.42;;;;;;;;;;4987776;28;20122;-73
2022/05/22 14:38:27;;;;;;;5.45;1.90;;;;;;;;;;4988411;28;20459;-77
2022/05/22 14:40:53;;;;;;;;;;;;;;;;;;4987910;28;20402;-74
2022/05/22 14:43:21;;;;;;;3.35;1.20;;;;;;;;;;4971749;28;19924;-75
2022/05/22 14:45:50;;;;;;;5.10;1.23;;;;;;;;;;4954862;28;20093;-74
2022/05/22 14:48:21;;;;;;;5.85;1.35;;;;;;;;;;4955433;28;20047;-75
2022/05/22 14:50:49;;;;;;;4.43;1.35;;;;;;;;;;4971547;28;20565;-77
2022/05/22 14:53:28;;;;;;;3.70;1.30;;;;;;;;;;4987497;28;20043;-76
2022/05/22 14:56:00;;;;;;;4.78;1.00;;;;;;;;;;4986988;28;20054;-75
2022/05/22 14:58:32;;;;;;;5.85;1.30;;;;;;;;;;4988080;28;20380;-73
2022/05/22 15:01:07;;;;;;;4.68;1.35;;;;;;;;;;4986556;28;20047;-74
2022/05/22 15:03:43;;;;;;;5.70;1.35;;;;;;;;;;4987356;28;20047;-74
2022/05/22 15:06:09;;;;;;;3.38;1.10;;;;;;;;;;4971045;28;20054;-74
2022/05/22 15:08:40;;;;;;;4.53;1.48;;;;;;;;;;4971553;28;20085;-75
2022/05/22 15:11:17;;;;;;;5.03;1.30;;;;;;;;;;4987808;28;20403;-77
2022/05/22 15:13:55;;;;;;;5.15;1.40;;;;;;;;;;4970546;28;20113;-75